sensor_id;sensor_type;location;lat;lon;timestamp;P1;durP1;ratioP1;P2;durP2;ratioP2
15102;SDS011;7652;53.584;9.998;2023-07-29T00:03:21;4.90;;;3.60;;
15102;SDS011;7652;53.584;9.998;2023-07-29T00:06:43;4.70;;;3.63;;
15102;SDS011;7652;53.584;9.998;2023-07-29T00:10:05;5.40;;;3.40;;
15102;SDS011;7652;53.584;9.998;2023-07-29T00:13:27;4.53;;;3.73;;
15102;SDS011;7652;53.584;9.998;2023-07-29T00:16:50;4.17;;;3.37;;
15102;SDS011;7652;53.584;9.998;2023-07-29T00:20:12;4.70;;;3.30;;
15102;SDS011;7652;53.584;9.998;2023-07-29T00:23:34;4.03;;;3.63;;
15102;SDS011;7652;53.584;9.998;2023-07-29T00:26:55;4.77;;;3.77;;
15102;SDS011;7652;53.584;9.998;2023-07-29T00:30:17;3.87;;;3.43;;
15102;SDS011;7652;53.584;9.998;2023-07-29T00:33:40;4.30;;;3.80;;
15102;SDS011;7652;53.584;9.998;2023-07-29T00:37:01;4.17;;;3.77;;
15102;SDS011;7652;53.584;9.998;2023-07-29T00:40:23;3.87;;;3.50;;
15102;SDS011;7652;53.584;9.998;2023-07-29T00:43:45;4.50;;;3.17;;
15102;SDS011;7652;53.584;9.998;2023-07-29T00:47:06;4.87;;;3.50;;
15102;SDS011;7652;53.584;9.998;2023-07-29T00:50:30;3.90;;;3.60;;
15102;SDS011;7652;53.584;9.998;2023-07-29T00:53:53;4.03;;;3.57;;
15102;SDS011;7652;53.584;9.998;2023-07-29T00:57:14;5.60;;;4.37;;
15102;SDS011;7652;53.584;9.998;2023-07-29T01:00:37;5.43;;;3.70;;
15102;SDS011;7652;53.584;9.998;2023-07-29T01:03:59;7.17;;;3.80;;
15102;SDS011;7652;53.584;9.998;2023-07-29T01:07:23;4.23;;;3.90;;
15102;SDS011;7652;53.584;9.998;2023-07-29T01:10:54;4.10;;;3.70;;
15102;SDS011;7652;53.584;9.998;2023-07-29T01:14:24;3.97;;;3.60;;
15102;SDS011;7652;53.584;9.998;2023-07-29T01:17:56;4.20;;;3.50;;
15102;SDS011;7652;53.584;9.998;2023-07-29T01:21:23;4.47;;;4.07;;
15102;SDS011;7652;53.584;9.998;2023-07-29T01:24:48;4.30;;;3.90;;
15102;SDS011;7652;53.584;9.998;2023-07-29T01:28:10;4.27;;;3.87;;
15102;SDS011;7652;53.584;9.998;2023-07-29T01:31:32;4.73;;;4.00;;
15102;SDS011;7652;53.584;9.998;2023-07-29T01:34:59;4.20;;;3.80;;
15102;SDS011;7652;53.584;9.998;2023-07-29T01:38:33;4.40;;;3.90;;
15102;SDS011;7652;53.584;9.998;2023-07-29T01:41:57;4.43;;;4.03;;
15102;SDS011;7652;53.584;9.998;2023-07-29T01:45:21;3.80;;;3.50;;
15102;SDS011;7652;53.584;9.998;2023-07-29T01:48:45;4.07;;;3.77;;
15102;SDS011;7652;53.584;9.998;2023-07-29T01:52:07;4.13;;;3.73;;
15102;SDS011;7652;53.584;9.998;2023-07-29T01:55:28;4.87;;;4.20;;
15102;SDS011;7652;53.584;9.998;2023-07-29T01:58:51;7.07;;;5.07;;
15102;SDS011;7652;53.584;9.998;2023-07-29T02:02:13;6.27;;;4.97;;
15102;SDS011;7652;53.584;9.998;2023-07-29T02:05:34;7.27;;;5.70;;
15102;SDS011;7652;53.584;9.998;2023-07-29T02:08:56;7.93;;;6.00;;
15102;SDS011;7652;53.584;9.998;2023-07-29T02:12:17;6.73;;;5.27;;
15102;SDS011;7652;53.584;9.998;2023-07-29T02:15:40;7.23;;;5.50;;
15102;SDS011;7652;53.584;9.998;2023-07-29T02:19:01;9.80;;;6.57;;
15102;SDS011;7652;53.584;9.998;2023-07-29T02:22:23;10.20;;;7.10;;
15102;SDS011;7652;53.584;9.998;2023-07-29T02:25:44;6.70;;;6.10;;
15102;SDS011;7652;53.584;9.998;2023-07-29T02:29:06;9.63;;;7.07;;
15102;SDS011;7652;53.584;9.998;2023-07-29T02:32:29;8.27;;;6.90;;
15102;SDS011;7652;53.584;9.998;2023-07-29T02:35:51;8.70;;;6.90;;
15102;SDS011;7652;53.584;9.998;2023-07-29T02:39:12;8.03;;;6.83;;
15102;SDS011;7652;53.584;9.998;2023-07-29T02:42:35;10.33;;;8.43;;
15102;SDS011;7652;53.584;9.998;2023-07-29T02:45:57;9.40;;;7.20;;
15102;SDS011;7652;53.584;9.998;2023-07-29T02:49:20;10.63;;;9.33;;
15102;SDS011;7652;53.584;9.998;2023-07-29T02:52:41;11.33;;;10.00;;
15102;SDS011;7652;53.584;9.998;2023-07-29T02:56:03;11.47;;;10.00;;
15102;SDS011;7652;53.584;9.998;2023-07-29T02:59:26;11.27;;;10.07;;
15102;SDS011;7652;53.584;9.998;2023-07-29T03:02:47;10.07;;;9.00;;
15102;SDS011;7652;53.584;9.998;2023-07-29T03:06:13;10.93;;;9.87;;
15102;SDS011;7652;53.584;9.998;2023-07-29T03:09:34;11.27;;;9.90;;
15102;SDS011;7652;53.584;9.998;2023-07-29T03:12:57;10.27;;;9.27;;
15102;SDS011;7652;53.584;9.998;2023-07-29T03:16:18;10.53;;;9.03;;
15102;SDS011;7652;53.584;9.998;2023-07-29T03:19:39;10.20;;;9.03;;
15102;SDS011;7652;53.584;9.998;2023-07-29T03:23:02;10.10;;;9.10;;
15102;SDS011;7652;53.584;9.998;2023-07-29T03:26:24;9.30;;;8.43;;
15102;SDS011;7652;53.584;9.998;2023-07-29T03:29:46;9.27;;;8.37;;
15102;SDS011;7652;53.584;9.998;2023-07-29T03:33:07;9.27;;;8.30;;
15102;SDS011;7652;53.584;9.998;2023-07-29T03:36:29;10.70;;;9.60;;
15102;SDS011;7652;53.584;9.998;2023-07-29T03:39:52;12.63;;;10.27;;
15102;SDS011;7652;53.584;9.998;2023-07-29T03:43:13;10.67;;;9.57;;
15102;SDS011;7652;53.584;9.998;2023-07-29T03:46:35;10.07;;;9.07;;
15102;SDS011;7652;53.584;9.998;2023-07-29T03:49:57;11.23;;;10.07;;
15102;SDS011;7652;53.584;9.998;2023-07-29T03:53:18;10.63;;;9.57;;
15102;SDS011;7652;53.584;9.998;2023-07-29T03:56:41;12.97;;;11.07;;
15102;SDS011;7652;53.584;9.998;2023-07-29T04:00:03;10.83;;;9.73;;
15102;SDS011;7652;53.584;9.998;2023-07-29T04:03:27;13.23;;;9.90;;
15102;SDS011;7652;53.584;9.998;2023-07-29T04:06:49;10.13;;;9.13;;
15102;SDS011;7652;53.584;9.998;2023-07-29T04:10:10;10.33;;;8.93;;
15102;SDS011;7652;53.584;9.998;2023-07-29T04:13:33;12.90;;;9.90;;
15102;SDS011;7652;53.584;9.998;2023-07-29T04:16:57;10.33;;;9.43;;
15102;SDS011;7652;53.584;9.998;2023-07-29T04:20:19;10.33;;;9.00;;
15102;SDS011;7652;53.584;9.998;2023-07-29T04:23:40;14.37;;;12.00;;
15102;SDS011;7652;53.584;9.998;2023-07-29T04:27:02;16.50;;;14.53;;
15102;SDS011;7652;53.584;9.998;2023-07-29T04:30:25;15.77;;;14.17;;
15102;SDS011;7652;53.584;9.998;2023-07-29T04:33:46;28.57;;;20.33;;
15102;SDS011;7652;53.584;9.998;2023-07-29T04:37:08;26.50;;;19.73;;
15102;SDS011;7652;53.584;9.998;2023-07-29T04:40:32;29.53;;;23.07;;
15102;SDS011;7652;53.584;9.998;2023-07-29T04:43:53;31.77;;;22.53;;
15102;SDS011;7652;53.584;9.998;2023-07-29T04:47:16;30.07;;;23.03;;
15102;SDS011;7652;53.584;9.998;2023-07-29T04:50:38;27.20;;;21.00;;
15102;SDS011;7652;53.584;9.998;2023-07-29T04:53:59;29.40;;;22.00;;
15102;SDS011;7652;53.584;9.998;2023-07-29T04:57:21;33.33;;;23.37;;
15102;SDS011;7652;53.584;9.998;2023-07-29T05:00:42;24.23;;;19.63;;
15102;SDS011;7652;53.584;9.998;2023-07-29T05:04:05;26.27;;;20.07;;
15102;SDS011;7652;53.584;9.998;2023-07-29T05:07:26;28.83;;;21.27;;
15102;SDS011;7652;53.584;9.998;2023-07-29T05:10:48;26.30;;;20.27;;
15102;SDS011;7652;53.584;9.998;2023-07-29T05:14:10;25.60;;;20.20;;
15102;SDS011;7652;53.584;9.998;2023-07-29T05:17:32;27.13;;;22.27;;
15102;SDS011;7652;53.584;9.998;2023-07-29T05:20:55;24.93;;;21.50;;
15102;SDS011;7652;53.584;9.998;2023-07-29T05:24:16;26.50;;;21.73;;
15102;SDS011;7652;53.584;9.998;2023-07-29T05:27:38;22.60;;;19.10;;
15102;SDS011;7652;53.584;9.998;2023-07-29T05:31:00;24.30;;;19.90;;
15102;SDS011;7652;53.584;9.998;2023-07-29T05:34:22;24.40;;;20.80;;
15102;SDS011;7652;53.584;9.998;2023-07-29T05:37:45;22.27;;;19.30;;
15102;SDS011;7652;53.584;9.998;2023-07-29T05:41:06;24.60;;;19.80;;
15102;SDS011;7652;53.584;9.998;2023-07-29T05:44:28;23.30;;;19.33;;
15102;SDS011;7652;53.584;9.998;2023-07-29T05:47:50;25.30;;;20.30;;
15102;SDS011;7652;53.584;9.998;2023-07-29T05:51:12;22.10;;;19.70;;
15102;SDS011;7652;53.584;9.998;2023-07-29T05:54:35;20.67;;;18.47;;
15102;SDS011;7652;53.584;9.998;2023-07-29T05:57:57;21.23;;;19.00;;
15102;SDS011;7652;53.584;9.998;2023-07-29T06:01:18;19.37;;;17.33;;
15102;SDS011;7652;53.584;9.998;2023-07-29T06:04:42;18.23;;;16.33;;
15102;SDS011;7652;53.584;9.998;2023-07-29T06:08:03;22.27;;;19.87;;
15102;SDS011;7652;53.584;9.998;2023-07-29T06:11:26;20.43;;;17.90;;
15102;SDS011;7652;53.584;9.998;2023-07-29T06:14:48;19.40;;;17.33;;
15102;SDS011;7652;53.584;9.998;2023-07-29T06:18:09;20.57;;;18.40;;
15102;SDS011;7652;53.584;9.998;2023-07-29T06:21:31;22.87;;;19.70;;
15102;SDS011;7652;53.584;9.998;2023-07-29T06:24:52;21.27;;;18.60;;
15102;SDS011;7652;53.584;9.998;2023-07-29T06:28:15;21.07;;;18.83;;
15102;SDS011;7652;53.584;9.998;2023-07-29T06:31:36;19.77;;;17.07;;
15102;SDS011;7652;53.584;9.998;2023-07-29T06:34:58;18.60;;;16.70;;
15102;SDS011;7652;53.584;9.998;2023-07-29T06:38:19;21.63;;;19.43;;
15102;SDS011;7652;53.584;9.998;2023-07-29T06:41:41;21.43;;;18.10;;
15102;SDS011;7652;53.584;9.998;2023-07-29T06:45:05;19.63;;;17.30;;
15102;SDS011;7652;53.584;9.998;2023-07-29T06:48:28;23.37;;;19.47;;
15102;SDS011;7652;53.584;9.998;2023-07-29T06:51:51;18.87;;;16.97;;
15102;SDS011;7652;53.584;9.998;2023-07-29T06:55:13;20.17;;;18.07;;
15102;SDS011;7652;53.584;9.998;2023-07-29T06:58:34;21.40;;;19.13;;
15102;SDS011;7652;53.584;9.998;2023-07-29T07:01:57;21.80;;;19.47;;
15102;SDS011;7652;53.584;9.998;2023-07-29T07:05:20;19.07;;;17.10;;
15102;SDS011;7652;53.584;9.998;2023-07-29T07:08:42;19.20;;;16.90;;
15102;SDS011;7652;53.584;9.998;2023-07-29T07:12:04;19.73;;;17.37;;
15102;SDS011;7652;53.584;9.998;2023-07-29T07:15:26;20.33;;;18.07;;
15102;SDS011;7652;53.584;9.998;2023-07-29T07:18:48;17.90;;;15.27;;
15102;SDS011;7652;53.584;9.998;2023-07-29T07:22:10;20.07;;;17.93;;
15102;SDS011;7652;53.584;9.998;2023-07-29T07:25:31;20.57;;;17.07;;
15102;SDS011;7652;53.584;9.998;2023-07-29T07:28:53;18.37;;;16.23;;
15102;SDS011;7652;53.584;9.998;2023-07-29T07:32:14;18.90;;;16.97;;
15102;SDS011;7652;53.584;9.998;2023-07-29T07:35:37;17.80;;;15.77;;
15102;SDS011;7652;53.584;9.998;2023-07-29T07:38:59;17.83;;;15.93;;
15102;SDS011;7652;53.584;9.998;2023-07-29T07:42:20;17.53;;;15.50;;
15102;SDS011;7652;53.584;9.998;2023-07-29T07:45:42;20.37;;;17.60;;
15102;SDS011;7652;53.584;9.998;2023-07-29T07:49:03;15.93;;;14.20;;
15102;SDS011;7652;53.584;9.998;2023-07-29T07:52:26;19.60;;;17.03;;
15102;SDS011;7652;53.584;9.998;2023-07-29T07:55:48;19.03;;;17.03;;
15102;SDS011;7652;53.584;9.998;2023-07-29T07:59:09;19.23;;;17.13;;
15102;SDS011;7652;53.584;9.998;2023-07-29T08:02:34;19.87;;;16.53;;
15102;SDS011;7652;53.584;9.998;2023-07-29T08:05:55;22.10;;;16.87;;
15102;SDS011;7652;53.584;9.998;2023-07-29T08:09:18;16.30;;;14.60;;
15102;SDS011;7652;53.584;9.998;2023-07-29T08:12:40;15.03;;;13.43;;
15102;SDS011;7652;53.584;9.998;2023-07-29T08:16:01;13.00;;;11.63;;
15102;SDS011;7652;53.584;9.998;2023-07-29T08:19:23;15.20;;;13.53;;
15102;SDS011;7652;53.584;9.998;2023-07-29T08:22:44;14.93;;;13.03;;
15102;SDS011;7652;53.584;9.998;2023-07-29T08:26:07;14.97;;;13.40;;
15102;SDS011;7652;53.584;9.998;2023-07-29T08:29:29;14.30;;;12.80;;
15102;SDS011;7652;53.584;9.998;2023-07-29T08:32:50;14.13;;;12.73;;
15102;SDS011;7652;53.584;9.998;2023-07-29T08:36:12;14.00;;;12.33;;
15102;SDS011;7652;53.584;9.998;2023-07-29T08:39:34;12.57;;;11.30;;
15102;SDS011;7652;53.584;9.998;2023-07-29T08:42:57;12.57;;;11.30;;
15102;SDS011;7652;53.584;9.998;2023-07-29T08:46:22;15.53;;;12.40;;
15102;SDS011;7652;53.584;9.998;2023-07-29T08:49:44;13.57;;;12.27;;
15102;SDS011;7652;53.584;9.998;2023-07-29T08:53:06;12.67;;;11.47;;
15102;SDS011;7652;53.584;9.998;2023-07-29T08:56:28;13.03;;;11.83;;
15102;SDS011;7652;53.584;9.998;2023-07-29T08:59:52;12.80;;;11.60;;
15102;SDS011;7652;53.584;9.998;2023-07-29T09:03:14;14.00;;;12.67;;
15102;SDS011;7652;53.584;9.998;2023-07-29T09:06:36;14.77;;;13.37;;
15102;SDS011;7652;53.584;9.998;2023-07-29T09:09:58;17.33;;;13.23;;
15102;SDS011;7652;53.584;9.998;2023-07-29T09:13:19;14.27;;;12.90;;
15102;SDS011;7652;53.584;9.998;2023-07-29T09:16:43;13.43;;;12.13;;
15102;SDS011;7652;53.584;9.998;2023-07-29T09:20:05;15.17;;;13.57;;
15102;SDS011;7652;53.584;9.998;2023-07-29T09:23:38;12.30;;;11.10;;
15102;SDS011;7652;53.584;9.998;2023-07-29T09:27:00;12.70;;;11.50;;
15102;SDS011;7652;53.584;9.998;2023-07-29T09:30:22;12.27;;;11.17;;
15102;SDS011;7652;53.584;9.998;2023-07-29T09:33:45;14.17;;;12.30;;
15102;SDS011;7652;53.584;9.998;2023-07-29T09:37:07;14.43;;;13.03;;
15102;SDS011;7652;53.584;9.998;2023-07-29T09:40:33;11.77;;;10.67;;
15102;SDS011;7652;53.584;9.998;2023-07-29T09:43:57;11.57;;;9.63;;
15102;SDS011;7652;53.584;9.998;2023-07-29T09:47:20;11.47;;;10.43;;
15102;SDS011;7652;53.584;9.998;2023-07-29T09:50:44;11.13;;;10.03;;
15102;SDS011;7652;53.584;9.998;2023-07-29T09:54:08;10.60;;;9.67;;
15102;SDS011;7652;53.584;9.998;2023-07-29T09:57:33;8.80;;;7.93;;
15102;SDS011;7652;53.584;9.998;2023-07-29T10:00:56;9.37;;;7.27;;
15102;SDS011;7652;53.584;9.998;2023-07-29T10:04:17;6.43;;;5.83;;
15102;SDS011;7652;53.584;9.998;2023-07-29T10:07:41;6.90;;;6.30;;
15102;SDS011;7652;53.584;9.998;2023-07-29T10:11:02;6.23;;;5.63;;
15102;SDS011;7652;53.584;9.998;2023-07-29T10:14:26;5.30;;;4.90;;
15102;SDS011;7652;53.584;9.998;2023-07-29T10:17:49;5.47;;;4.97;;
15102;SDS011;7652;53.584;9.998;2023-07-29T10:21:12;6.10;;;5.50;;
15102;SDS011;7652;53.584;9.998;2023-07-29T10:24:37;4.70;;;4.40;;
15102;SDS011;7652;53.584;9.998;2023-07-29T10:28:04;5.70;;;5.10;;
15102;SDS011;7652;53.584;9.998;2023-07-29T10:31:27;4.60;;;4.20;;
15102;SDS011;7652;53.584;9.998;2023-07-29T10:34:50;3.17;;;2.97;;
15102;SDS011;7652;53.584;9.998;2023-07-29T10:38:12;4.07;;;3.70;;
15102;SDS011;7652;53.584;9.998;2023-07-29T10:45:20;4.43;;;4.03;;
15102;SDS011;7652;53.584;9.998;2023-07-29T10:48:43;4.40;;;4.10;;
15102;SDS011;7652;53.584;9.998;2023-07-29T10:52:05;3.97;;;3.67;;
15102;SDS011;7652;53.584;9.998;2023-07-29T10:55:28;4.40;;;4.10;;
15102;SDS011;7652;53.584;9.998;2023-07-29T10:58:52;4.20;;;3.80;;
15102;SDS011;7652;53.584;9.998;2023-07-29T11:02:17;3.80;;;3.50;;
15102;SDS011;7652;53.584;9.998;2023-07-29T11:05:43;3.87;;;3.60;;
15102;SDS011;7652;53.584;9.998;2023-07-29T11:13:01;3.70;;;3.40;;
15102;SDS011;7652;53.584;9.998;2023-07-29T11:16:24;4.10;;;3.47;;
15102;SDS011;7652;53.584;9.998;2023-07-29T11:19:47;4.10;;;3.00;;
15102;SDS011;7652;53.584;9.998;2023-07-29T11:23:10;3.30;;;3.10;;
15102;SDS011;7652;53.584;9.998;2023-07-29T11:26:31;3.03;;;2.73;;
15102;SDS011;7652;53.584;9.998;2023-07-29T11:29:56;2.50;;;2.30;;
15102;SDS011;7652;53.584;9.998;2023-07-29T11:33:20;2.80;;;2.20;;
15102;SDS011;7652;53.584;9.998;2023-07-29T11:36:45;4.37;;;2.00;;
15102;SDS011;7652;53.584;9.998;2023-07-29T11:40:07;2.00;;;1.90;;
15102;SDS011;7652;53.584;9.998;2023-07-29T11:43:30;2.13;;;2.00;;
15102;SDS011;7652;53.584;9.998;2023-07-29T11:46:55;2.70;;;2.50;;
15102;SDS011;7652;53.584;9.998;2023-07-29T11:50:19;2.60;;;2.40;;
15102;SDS011;7652;53.584;9.998;2023-07-29T11:53:40;2.33;;;2.20;;
15102;SDS011;7652;53.584;9.998;2023-07-29T11:57:03;2.57;;;2.37;;
15102;SDS011;7652;53.584;9.998;2023-07-29T12:00:27;2.77;;;2.57;;
15102;SDS011;7652;53.584;9.998;2023-07-29T12:03:49;3.37;;;2.60;;
15102;SDS011;7652;53.584;9.998;2023-07-29T12:07:13;2.50;;;2.30;;
15102;SDS011;7652;53.584;9.998;2023-07-29T12:10:35;2.73;;;2.53;;
15102;SDS011;7652;53.584;9.998;2023-07-29T12:13:59;2.50;;;2.30;;
15102;SDS011;7652;53.584;9.998;2023-07-29T12:17:21;2.60;;;2.40;;
15102;SDS011;7652;53.584;9.998;2023-07-29T12:20:42;2.20;;;2.10;;
15102;SDS011;7652;53.584;9.998;2023-07-29T12:24:06;2.60;;;2.20;;
15102;SDS011;7652;53.584;9.998;2023-07-29T12:27:29;2.10;;;2.00;;
15102;SDS011;7652;53.584;9.998;2023-07-29T12:30:53;2.47;;;2.27;;
15102;SDS011;7652;53.584;9.998;2023-07-29T12:34:17;2.07;;;1.97;;
15102;SDS011;7652;53.584;9.998;2023-07-29T12:37:39;3.00;;;1.50;;
15102;SDS011;7652;53.584;9.998;2023-07-29T12:41:04;1.70;;;1.60;;
15102;SDS011;7652;53.584;9.998;2023-07-29T12:44:28;1.40;;;1.30;;
15102;SDS011;7652;53.584;9.998;2023-07-29T12:47:51;1.67;;;1.50;;
15102;SDS011;7652;53.584;9.998;2023-07-29T12:51:12;1.40;;;1.30;;
15102;SDS011;7652;53.584;9.998;2023-07-29T12:54:34;1.47;;;1.37;;
15102;SDS011;7652;53.584;9.998;2023-07-29T12:57:57;1.70;;;1.30;;
15102;SDS011;7652;53.584;9.998;2023-07-29T13:01:19;1.50;;;1.40;;
15102;SDS011;7652;53.584;9.998;2023-07-29T13:04:40;1.13;;;1.13;;
15102;SDS011;7652;53.584;9.998;2023-07-29T13:08:02;1.20;;;1.10;;
15102;SDS011;7652;53.584;9.998;2023-07-29T13:11:23;1.33;;;1.23;;
15102;SDS011;7652;53.584;9.998;2023-07-29T13:14:47;1.20;;;1.20;;
15102;SDS011;7652;53.584;9.998;2023-07-29T13:18:09;1.40;;;1.30;;
15102;SDS011;7652;53.584;9.998;2023-07-29T13:21:30;1.40;;;1.30;;
15102;SDS011;7652;53.584;9.998;2023-07-29T13:24:51;1.23;;;1.13;;
15102;SDS011;7652;53.584;9.998;2023-07-29T13:28:13;1.27;;;1.20;;
15102;SDS011;7652;53.584;9.998;2023-07-29T13:31:36;1.73;;;1.60;;
15102;SDS011;7652;53.584;9.998;2023-07-29T13:34:58;1.17;;;1.13;;
15102;SDS011;7652;53.584;9.998;2023-07-29T13:38:19;1.53;;;1.43;;
15102;SDS011;7652;53.584;9.998;2023-07-29T13:41:41;1.10;;;1.10;;
15102;SDS011;7652;53.584;9.998;2023-07-29T13:45:03;4.57;;;1.60;;
15102;SDS011;7652;53.584;9.998;2023-07-29T13:48:26;1.80;;;1.70;;
15102;SDS011;7652;53.584;9.998;2023-07-29T13:51:48;2.83;;;1.73;;
15102;SDS011;7652;53.584;9.998;2023-07-29T13:55:09;1.80;;;1.60;;
15102;SDS011;7652;53.584;9.998;2023-07-29T13:58:31;1.70;;;1.60;;
15102;SDS011;7652;53.584;9.998;2023-07-29T14:01:52;1.73;;;1.50;;
15102;SDS011;7652;53.584;9.998;2023-07-29T14:05:15;1.50;;;1.40;;
15102;SDS011;7652;53.584;9.998;2023-07-29T14:08:37;1.60;;;1.50;;
15102;SDS011;7652;53.584;9.998;2023-07-29T14:12:00;1.77;;;1.67;;
15102;SDS011;7652;53.584;9.998;2023-07-29T14:15:21;1.80;;;1.40;;
15102;SDS011;7652;53.584;9.998;2023-07-29T14:18:43;1.90;;;1.50;;
15102;SDS011;7652;53.584;9.998;2023-07-29T14:22:06;2.00;;;1.40;;
15102;SDS011;7652;53.584;9.998;2023-07-29T14:25:27;1.50;;;1.40;;
15102;SDS011;7652;53.584;9.998;2023-07-29T14:28:50;1.53;;;1.43;;
15102;SDS011;7652;53.584;9.998;2023-07-29T14:32:11;2.23;;;1.50;;
15102;SDS011;7652;53.584;9.998;2023-07-29T14:35:33;1.47;;;1.37;;
15102;SDS011;7652;53.584;9.998;2023-07-29T14:38:56;1.90;;;1.80;;
15102;SDS011;7652;53.584;9.998;2023-07-29T14:42:17;1.70;;;1.60;;
15102;SDS011;7652;53.584;9.998;2023-07-29T14:45:38;1.67;;;1.47;;
15102;SDS011;7652;53.584;9.998;2023-07-29T14:49:00;2.03;;;1.40;;
15102;SDS011;7652;53.584;9.998;2023-07-29T14:52:21;3.10;;;1.40;;
15102;SDS011;7652;53.584;9.998;2023-07-29T14:55:45;2.13;;;1.57;;
15102;SDS011;7652;53.584;9.998;2023-07-29T14:59:06;2.20;;;1.70;;
15102;SDS011;7652;53.584;9.998;2023-07-29T15:02:28;1.53;;;1.43;;
15102;SDS011;7652;53.584;9.998;2023-07-29T15:05:49;3.00;;;1.53;;
15102;SDS011;7652;53.584;9.998;2023-07-29T15:09:11;2.70;;;1.67;;
15102;SDS011;7652;53.584;9.998;2023-07-29T15:12:35;2.27;;;1.50;;
15102;SDS011;7652;53.584;9.998;2023-07-29T15:15:57;3.67;;;1.40;;
15102;SDS011;7652;53.584;9.998;2023-07-29T15:19:18;2.80;;;1.30;;
15102;SDS011;7652;53.584;9.998;2023-07-29T15:22:40;1.97;;;1.30;;
15102;SDS011;7652;53.584;9.998;2023-07-29T15:26:01;1.60;;;1.40;;
15102;SDS011;7652;53.584;9.998;2023-07-29T15:29:24;1.40;;;1.30;;
15102;SDS011;7652;53.584;9.998;2023-07-29T15:32:45;1.60;;;1.50;;
15102;SDS011;7652;53.584;9.998;2023-07-29T15:36:07;1.50;;;1.40;;
15102;SDS011;7652;53.584;9.998;2023-07-29T15:39:28;2.90;;;1.33;;
15102;SDS011;7652;53.584;9.998;2023-07-29T15:42:50;2.00;;;1.50;;
15102;SDS011;7652;53.584;9.998;2023-07-29T15:46:13;1.70;;;1.60;;
15102;SDS011;7652;53.584;9.998;2023-07-29T15:49:34;1.67;;;1.50;;
15102;SDS011;7652;53.584;9.998;2023-07-29T15:52:56;1.60;;;1.47;;
15102;SDS011;7652;53.584;9.998;2023-07-29T15:56:17;1.87;;;1.40;;
15102;SDS011;7652;53.584;9.998;2023-07-29T15:59:39;1.77;;;1.67;;
15102;SDS011;7652;53.584;9.998;2023-07-29T16:03:01;1.70;;;1.60;;
15102;SDS011;7652;53.584;9.998;2023-07-29T16:06:24;1.43;;;1.33;;
15102;SDS011;7652;53.584;9.998;2023-07-29T16:09:46;2.50;;;1.77;;
15102;SDS011;7652;53.584;9.998;2023-07-29T16:13:07;2.60;;;1.77;;
15102;SDS011;7652;53.584;9.998;2023-07-29T16:16:29;2.03;;;1.80;;
15102;SDS011;7652;53.584;9.998;2023-07-29T16:19:53;2.03;;;1.30;;
15102;SDS011;7652;53.584;9.998;2023-07-29T16:23:16;1.00;;;0.90;;
15102;SDS011;7652;53.584;9.998;2023-07-29T16:26:37;2.33;;;1.00;;
15102;SDS011;7652;53.584;9.998;2023-07-29T16:29:58;1.30;;;1.00;;
15102;SDS011;7652;53.584;9.998;2023-07-29T16:33:22;1.57;;;1.00;;
15102;SDS011;7652;53.584;9.998;2023-07-29T16:36:45;2.13;;;1.20;;
15102;SDS011;7652;53.584;9.998;2023-07-29T16:40:07;3.17;;;1.23;;
15102;SDS011;7652;53.584;9.998;2023-07-29T16:43:30;1.77;;;1.23;;
15102;SDS011;7652;53.584;9.998;2023-07-29T16:46:51;1.90;;;1.30;;
15102;SDS011;7652;53.584;9.998;2023-07-29T16:50:13;1.13;;;1.00;;
15102;SDS011;7652;53.584;9.998;2023-07-29T16:53:36;1.40;;;1.30;;
15102;SDS011;7652;53.584;9.998;2023-07-29T16:56:59;1.77;;;1.20;;
15102;SDS011;7652;53.584;9.998;2023-07-29T17:00:21;1.50;;;1.37;;
15102;SDS011;7652;53.584;9.998;2023-07-29T17:03:42;2.27;;;1.47;;
15102;SDS011;7652;53.584;9.998;2023-07-29T17:07:04;1.63;;;1.30;;
15102;SDS011;7652;53.584;9.998;2023-07-29T17:10:27;1.57;;;1.30;;
15102;SDS011;7652;53.584;9.998;2023-07-29T17:13:48;2.20;;;1.40;;
15102;SDS011;7652;53.584;9.998;2023-07-29T17:17:10;1.40;;;1.10;;
15102;SDS011;7652;53.584;9.998;2023-07-29T17:20:31;2.13;;;1.53;;
15102;SDS011;7652;53.584;9.998;2023-07-29T17:23:53;2.37;;;1.60;;
15102;SDS011;7652;53.584;9.998;2023-07-29T17:27:16;2.27;;;1.70;;
15102;SDS011;7652;53.584;9.998;2023-07-29T17:30:37;1.90;;;1.70;;
15102;SDS011;7652;53.584;9.998;2023-07-29T17:33:59;2.50;;;1.47;;
15102;SDS011;7652;53.584;9.998;2023-07-29T17:37:21;2.30;;;1.73;;
15102;SDS011;7652;53.584;9.998;2023-07-29T17:40:42;2.27;;;1.70;;
15102;SDS011;7652;53.584;9.998;2023-07-29T17:44:05;3.93;;;1.87;;
15102;SDS011;7652;53.584;9.998;2023-07-29T17:47:27;2.73;;;1.90;;
15102;SDS011;7652;53.584;9.998;2023-07-29T17:50:48;3.50;;;2.10;;
15102;SDS011;7652;53.584;9.998;2023-07-29T17:54:09;3.27;;;2.20;;
15102;SDS011;7652;53.584;9.998;2023-07-29T17:57:31;2.13;;;1.93;;
15102;SDS011;7652;53.584;9.998;2023-07-29T18:00:54;2.97;;;2.30;;
15102;SDS011;7652;53.584;9.998;2023-07-29T18:04:18;4.30;;;2.20;;
15102;SDS011;7652;53.584;9.998;2023-07-29T18:07:40;2.70;;;2.50;;
15102;SDS011;7652;53.584;9.998;2023-07-29T18:11:01;2.40;;;2.20;;
15102;SDS011;7652;53.584;9.998;2023-07-29T18:14:22;2.47;;;2.27;;
15102;SDS011;7652;53.584;9.998;2023-07-29T18:17:45;3.20;;;2.50;;
15102;SDS011;7652;53.584;9.998;2023-07-29T18:21:07;3.33;;;2.73;;
15102;SDS011;7652;53.584;9.998;2023-07-29T18:24:28;3.33;;;2.27;;
15102;SDS011;7652;53.584;9.998;2023-07-29T18:27:50;3.57;;;2.83;;
15102;SDS011;7652;53.584;9.998;2023-07-29T18:31:15;3.20;;;2.33;;
15102;SDS011;7652;53.584;9.998;2023-07-29T18:34:38;1.77;;;1.67;;
15102;SDS011;7652;53.584;9.998;2023-07-29T18:37:59;3.37;;;2.33;;
15102;SDS011;7652;53.584;9.998;2023-07-29T18:41:20;3.23;;;2.20;;
15102;SDS011;7652;53.584;9.998;2023-07-29T18:44:42;2.90;;;2.43;;
15102;SDS011;7652;53.584;9.998;2023-07-29T18:48:03;2.70;;;1.73;;
15102;SDS011;7652;53.584;9.998;2023-07-29T18:51:27;3.63;;;2.80;;
15102;SDS011;7652;53.584;9.998;2023-07-29T18:54:48;3.67;;;2.23;;
15102;SDS011;7652;53.584;9.998;2023-07-29T18:58:10;4.83;;;2.10;;
15102;SDS011;7652;53.584;9.998;2023-07-29T19:01:32;2.30;;;2.03;;
15102;SDS011;7652;53.584;9.998;2023-07-29T19:04:53;3.87;;;2.30;;
15102;SDS011;7652;53.584;9.998;2023-07-29T19:08:16;3.80;;;2.30;;
15102;SDS011;7652;53.584;9.998;2023-07-29T19:11:38;4.10;;;2.50;;
15102;SDS011;7652;53.584;9.998;2023-07-29T19:14:59;2.60;;;1.80;;
15102;SDS011;7652;53.584;9.998;2023-07-29T19:18:21;2.40;;;2.20;;
15102;SDS011;7652;53.584;9.998;2023-07-29T19:21:42;3.13;;;2.20;;
15102;SDS011;7652;53.584;9.998;2023-07-29T19:25:06;4.27;;;2.40;;
15102;SDS011;7652;53.584;9.998;2023-07-29T19:28:28;2.90;;;2.47;;
15102;SDS011;7652;53.584;9.998;2023-07-29T19:31:50;3.63;;;2.70;;
15102;SDS011;7652;53.584;9.998;2023-07-29T19:35:11;4.10;;;3.03;;
15102;SDS011;7652;53.584;9.998;2023-07-29T19:38:33;3.93;;;2.50;;
15102;SDS011;7652;53.584;9.998;2023-07-29T19:41:56;4.17;;;2.43;;
15102;SDS011;7652;53.584;9.998;2023-07-29T19:45:17;2.43;;;2.23;;
15102;SDS011;7652;53.584;9.998;2023-07-29T19:48:39;2.87;;;2.33;;
15102;SDS011;7652;53.584;9.998;2023-07-29T19:52:00;2.80;;;2.50;;
15102;SDS011;7652;53.584;9.998;2023-07-29T19:55:22;2.47;;;2.00;;
15102;SDS011;7652;53.584;9.998;2023-07-29T19:58:45;3.13;;;2.20;;
15102;SDS011;7652;53.584;9.998;2023-07-29T20:02:08;3.07;;;2.70;;
15102;SDS011;7652;53.584;9.998;2023-07-29T20:05:29;3.73;;;2.60;;
15102;SDS011;7652;53.584;9.998;2023-07-29T20:08:51;3.57;;;2.90;;
15102;SDS011;7652;53.584;9.998;2023-07-29T20:12:14;3.37;;;2.87;;
15102;SDS011;7652;53.584;9.998;2023-07-29T20:15:37;3.17;;;2.87;;
15102;SDS011;7652;53.584;9.998;2023-07-29T20:18:58;2.67;;;2.43;;
15102;SDS011;7652;53.584;9.998;2023-07-29T20:22:20;4.30;;;2.90;;
15102;SDS011;7652;53.584;9.998;2023-07-29T20:25:42;3.17;;;2.87;;
15102;SDS011;7652;53.584;9.998;2023-07-29T20:29:03;3.83;;;2.70;;
15102;SDS011;7652;53.584;9.998;2023-07-29T20:32:26;4.33;;;3.10;;
15102;SDS011;7652;53.584;9.998;2023-07-29T20:35:52;4.00;;;3.00;;